Sunday, February 01, 2015
14:45 UTC
  |  Log In   |  Register Free
Airport Search:

Newnan Coweta County Airport
(KCCO)

Newnan Coweta County Airport Diagram
No Airport Diagram Available

FAA data valid effective January 08, 2015 - March 05, 2015 (unless otherwise noted).

 
 
 
 
 
 
 
 
 
 
 
 
 
 

Current Aviation Weather for Newnan Coweta County Airport (KCCO)

The most recent METAR observation for KCCO was updated at: 1415
METAR Summary (Translated METAR)
KCCO
011355Z AUTO 14008KT 10SM CLR 07/04 A3016 RMK AO2 T00680035
KFFC
011353Z AUTO 12004KT 9SM CLR 06/02 A3018 RMK AO2 SLP226 T00610017
(10.3 nm NE from KCCO)
KLGC
011355Z AUTO 19009KT 10SM SCT037 11/07 A3015 RMK AO2 T01110072
(23.7 nm SW from KCCO)
TAF
No TAF information found within 50 nm of KCCO
  Airport Weather Conditions for KCCO

 Current Weather at CCO
43° F
Fair
Southeast winds at 8.1 mph
CCO NOAA Radar

Pressure: 30.16 in
Humidity: 82%
Wind: Southeast at 8.1 MPH (7 KT)
Dew Point: 37.4°F
Visibility: 10.00 mi


Airport Weather Forecast for KCCO

Translated METAR and TAF for KCCO
Translated METAR for KCCO (1446 UTC 01 February 2015)
found at http://aviationweather.gov/adds/metars/
 
METAR text: KCCO 011435Z AUTO 17005KT 10SM BKN038 08/05 A3017 RMK AO2 T00840047
Conditions at: KCCO (NEWNAN , GA, US) observed 1435 UTC 01 February 2015
Temperature: 8.4°C (47°F)
Dewpoint: 4.7°C (40°F) [RH = 77%]
Pressure (altimeter): 30.17 inches Hg (1021.8 mb)
Winds: from the S (170 degrees) at 6 MPH (5 knots; 2.6 m/s)
Visibility: 10 or more miles (16+ km)
Ceiling: 3800 feet AGL
Clouds: broken clouds at 3800 feet AGL
Weather: automated observation with no human augmentation;
there may or may not be significant weather present at this time
Translated TAF for KCCO

There is no translated TAF available for this airport

Find All Airport Services Find A Hotel Find A Rental Car Find A Golf Course Find A Restaurant $100 Hamburger



FBO's on the Field
FBO Company Facility Photos Services Transportation Aviation Fuel Prices: Prices include tax
Catering Weather Repair Courtesy Rental Type 100LL JetA JetA+ MOGAS 8087
 
CCO Airport Services

This FBO has not yet been rated
FS:Shell
Last Updated: Dec-30
Login to update fuel prices
SS:
Contact CCO Airport ServicesMore FBO Information
 
Add another FBO Facility Photos Catering Weather Repair Courtesy Rental Type 100LL JetA JetA+ MOGAS 8087
Services Transportation Aviation Fuel Prices: Prices include tax


model-print
model-print
model-print
model-print